Station Historical Data
Daily Summary for January 20, 2017 Units:  Both    English   Metric
« Previous Day
Next Day »
Daily Weekly Monthly Yearly Custom
  High: Low: Average:
Temperature: 71.9 °F /  22.2 °C 55.4 °F /  13 °C 61.6 °F /  16.4 °C
Dew Point: 60.2 °F /  15.7 °C 53.6 °F /  12 °C 55.2 °F /  12.9 °C
Humidity: 95% 54% 81%
Wind Speed: 9.2mph /  14.8km/h - 9.2mph /  14.8km/h
Wind Gust: 9.2mph /  14.8km/h - -
Wind- - South
Pressure: 29.90 in /  1012.4 hPa 29.74 in /  1007 hPa -
Precipitation: 0.36 in /  9.14 mm    
Historical Graphs
 
 
Tabular Data for January 20, 2017
Time Temperature Dew Point Pressure Wind Wind Speed Wind Gust Humidity Rainfall Rate (Hourly) solar Conditions
00:03 56.7 °F /  13.7 °C 54.4 °F /  12.4 °C 29.89in /  1012.1hPa NNW 9.2mph /  14.8km/h   92% 0.43in /  10.92mm 0.0 W/m2 RA
00:08 56.8 °F /  13.8 °C 54.5 °F /  12.5 °C 29.88in /  1011.7hPa NNW 9.2mph /  14.8km/h   92% 0.01in /  0.25mm 0.0 W/m2 RA
00:13 56.9 °F /  13.8 °C 54.6 °F /  12.6 °C 29.87in /  1011.4hPa NNW 9.2mph /  14.8km/h   92% 0.04in /  1.02mm 0.0 W/m2 RA
00:19 56.9 °F /  13.8 °C 54.6 °F /  12.6 °C 29.87in /  1011.4hPa NNW 9.2mph /  14.8km/h   92% 0.07in /  1.78mm 0.0 W/m2 RA
00:24 56.9 °F /  13.8 °C 54.6 °F /  12.6 °C 29.87in /  1011.4hPa NNW 9.2mph /  14.8km/h   92% 0.10in /  2.54mm 0.0 W/m2 RA
00:29 56.9 °F /  13.8 °C 54.6 °F /  12.6 °C 29.86in /  1011.1hPa NNW 9.2mph /  14.8km/h   92% 0.10in /  2.54mm 0.0 W/m2 RA
00:34 56.9 °F /  13.8 °C 54.6 °F /  12.6 °C 29.86in /  1011.1hPa NNW 9.2mph /  14.8km/h   92% 0.09in /  2.29mm 0.0 W/m2 RA
00:39 56.9 °F /  13.8 °C 54.6 °F /  12.6 °C 29.84in /  1010.4hPa NNW 9.2mph /  14.8km/h   92% 0.07in /  1.78mm 0.0 W/m2 RA
00:44 56.8 °F /  13.8 °C 54.5 °F /  12.5 °C 29.83in /  1010hPa NW 9.2mph /  14.8km/h 9.2mph /  14.8km/h 92% 0.04in /  1.02mm 0.0 W/m2 RA
00:49 56.8 °F /  13.8 °C 54.5 °F /  12.5 °C 29.83in /  1010hPa NW 9.2mph /  14.8km/h 9.2mph /  14.8km/h 92% 0.00in /  0mm 0.0 W/m2
00:54 55.9 °F /  13.3 °C 53.6 °F /  12 °C 29.83in /  1010hPa NW 9.2mph /  14.8km/h   92% 0.43in /  10.92mm 0.0 W/m2
00:59 55.9 °F /  13.3 °C 53.6 °F /  12 °C 29.82in /  1009.7hPa NW 9.2mph /  14.8km/h   92% 0.38in /  9.65mm 0.0 W/m2
01:04 55.9 °F /  13.3 °C 53.6 °F /  12 °C 29.79in /  1008.7hPa NNE 9.2mph /  14.8km/h   92% 0.32in /  8.13mm 0.0 W/m2
01:09 55.9 °F /  13.3 °C 53.6 °F /  12 °C 29.74in /  1007hPa North 9.2mph /  14.8km/h   92% 0.27in /  6.86mm 0.0 W/m2
01:15 55.9 °F /  13.3 °C 53.6 °F /  12 °C 29.78in /  1008.4hPa North 9.2mph /  14.8km/h   92% 0.21in /  5.33mm 0.0 W/m2
01:20 55.9 °F /  13.3 °C 53.6 °F /  12 °C 29.77in /  1008hPa North 9.2mph /  14.8km/h   92% 0.16in /  4.06mm 0.0 W/m2
01:25 55.9 °F /  13.3 °C 53.6 °F /  12 °C 29.78in /  1008.4hPa North 9.2mph /  14.8km/h   92% 0.12in /  3.05mm 0.0 W/m2
01:30 55.9 °F /  13.3 °C 53.6 °F /  12 °C 29.78in /  1008.4hPa North 9.2mph /  14.8km/h   92% 0.09in /  2.29mm 0.0 W/m2
01:35 55.9 °F /  13.3 °C 53.6 °F /  12 °C 29.79in /  1008.7hPa North 9.2mph /  14.8km/h   92% 0.06in /  1.52mm 0.0 W/m2
01:40 55.9 °F /  13.3 °C 53.6 °F /  12 °C 29.81in /  1009.4hPa North 9.2mph /  14.8km/h   92% 0.04in /  1.02mm 0.0 W/m2
01:45 55.9 °F /  13.3 °C 53.6 °F /  12 °C 29.82in /  1009.7hPa North 9.2mph /  14.8km/h   92% 0.02in /  0.51mm 0.0 W/m2
01:50 55.9 °F /  13.3 °C 53.6 °F /  12 °C 29.82in /  1009.7hPa North 9.2mph /  14.8km/h   92% 0.00in /  0mm 0.0 W/m2
01:55 55.9 °F /  13.3 °C 53.6 °F /  12 °C 29.82in /  1009.7hPa North 9.2mph /  14.8km/h   92% 0.00in /  0mm 0.0 W/m2
02:01 55.9 °F /  13.3 °C 53.6 °F /  12 °C 29.82in /  1009.7hPa North 9.2mph /  14.8km/h   92% 0.00in /  0mm 0.0 W/m2
02:06 55.9 °F /  13.3 °C 53.6 °F /  12 °C 29.83in /  1010hPa North 9.2mph /  14.8km/h   92% 0.00in /  0mm 0.0 W/m2
02:11 55.9 °F /  13.3 °C 53.6 °F /  12 °C 29.83in /  1010hPa North 9.2mph /  14.8km/h   92% 0.00in /  0mm 0.0 W/m2
02:16 55.9 °F /  13.3 °C 53.6 °F /  12 °C 29.83in /  1010hPa North 9.2mph /  14.8km/h   92% 0.00in /  0mm 0.0 W/m2
02:21 55.9 °F /  13.3 °C 53.6 °F /  12 °C 29.82in /  1009.7hPa North 9.2mph /  14.8km/h   92% 0.00in /  0mm 0.0 W/m2
02:26 55.9 °F /  13.3 °C 53.6 °F /  12 °C 29.82in /  1009.7hPa North 9.2mph /  14.8km/h   92% 0.00in /  0mm 0.0 W/m2
02:31 55.9 °F /  13.3 °C 53.6 °F /  12 °C 29.82in /  1009.7hPa North 9.2mph /  14.8km/h   92% 0.00in /  0mm 0.0 W/m2
02:36 55.9 °F /  13.3 °C 53.6 °F /  12 °C 29.82in /  1009.7hPa North 9.2mph /  14.8km/h   92% 0.00in /  0mm 0.0 W/m2
02:41 55.9 °F /  13.3 °C 53.6 °F /  12 °C 29.82in /  1009.7hPa North 9.2mph /  14.8km/h   92% 0.00in /  0mm 0.0 W/m2
02:46 55.9 °F /  13.3 °C 53.6 °F /  12 °C 29.82in /  1009.7hPa North 9.2mph /  14.8km/h   92% 0.00in /  0mm 0.0 W/m2
02:51 55.9 °F /  13.3 °C 53.6 °F /  12 °C 29.82in /  1009.7hPa North 9.2mph /  14.8km/h   92% 0.00in /  0mm 0.0 W/m2
02:57 55.9 °F /  13.3 °C 53.6 °F /  12 °C 29.82in /  1009.7hPa North 9.2mph /  14.8km/h   92% 0.00in /  0mm 0.0 W/m2
03:02 55.9 °F /  13.3 °C 53.6 °F /  12 °C 29.82in /  1009.7hPa North 9.2mph /  14.8km/h   92% 0.00in /  0mm 0.0 W/m2
03:07 55.9 °F /  13.3 °C 53.6 °F /  12 °C 29.82in /  1009.7hPa North 9.2mph /  14.8km/h   92% 0.00in /  0mm 0.0 W/m2
03:12 55.9 °F /  13.3 °C 53.6 °F /  12 °C 29.82in /  1009.7hPa North 9.2mph /  14.8km/h   92% 0.00in /  0mm 0.0 W/m2
03:17 55.9 °F /  13.3 °C 53.6 °F /  12 °C 29.82in /  1009.7hPa North 9.2mph /  14.8km/h   92% 0.00in /  0mm 0.0 W/m2
03:22 55.9 °F /  13.3 °C 53.6 °F /  12 °C 29.82in /  1009.7hPa North 9.2mph /  14.8km/h   92% 0.00in /  0mm 0.0 W/m2
03:27 55.9 °F /  13.3 °C 53.6 °F /  12 °C 29.82in /  1009.7hPa North 9.2mph /  14.8km/h   92% 0.00in /  0mm 0.0 W/m2
03:32 55.9 °F /  13.3 °C 53.6 °F /  12 °C 29.82in /  1009.7hPa North 9.2mph /  14.8km/h   92% 0.00in /  0mm 0.0 W/m2
03:37 55.9 °F /  13.3 °C 53.6 °F /  12 °C 29.82in /  1009.7hPa North 9.2mph /  14.8km/h   92% 0.00in /  0mm 0.0 W/m2
03:42 55.9 °F /  13.3 °C 53.6 °F /  12 °C 29.82in /  1009.7hPa North 9.2mph /  14.8km/h   92% 0.00in /  0mm 0.0 W/m2
03:48 55.9 °F /  13.3 °C 53.6 °F /  12 °C 29.82in /  1009.7hPa North 9.2mph /  14.8km/h   92% 0.00in /  0mm 0.0 W/m2
03:53 55.9 °F /  13.3 °C 53.6 °F /  12 °C 29.82in /  1009.7hPa North 9.2mph /  14.8km/h   92% 0.00in /  0mm 0.0 W/m2
03:58 55.9 °F /  13.3 °C 53.6 °F /  12 °C 29.82in /  1009.7hPa North 9.2mph /  14.8km/h   92% 0.00in /  0mm 0.0 W/m2
04:03 55.9 °F /  13.3 °C 53.6 °F /  12 °C 29.82in /  1009.7hPa North 9.2mph /  14.8km/h   92% 0.00in /  0mm 0.0 W/m2
04:08 55.9 °F /  13.3 °C 53.6 °F /  12 °C 29.82in /  1009.7hPa North 9.2mph /  14.8km/h   92% 0.00in /  0mm 0.0 W/m2
04:13 55.9 °F /  13.3 °C 53.6 °F /  12 °C 29.82in /  1009.7hPa North 9.2mph /  14.8km/h   92% 0.00in /  0mm 0.0 W/m2
04:18 55.9 °F /  13.3 °C 53.6 °F /  12 °C 29.81in /  1009.4hPa North 9.2mph /  14.8km/h   92% 0.00in /  0mm 0.0 W/m2
04:23 55.9 °F /  13.3 °C 53.6 °F /  12 °C 29.81in /  1009.4hPa North 9.2mph /  14.8km/h   92% 0.00in /  0mm 0.0 W/m2
04:28 55.9 °F /  13.3 °C 53.6 °F /  12 °C 29.81in /  1009.4hPa North 9.2mph /  14.8km/h   92% 0.00in /  0mm 0.0 W/m2
04:33 55.9 °F /  13.3 °C 53.6 °F /  12 °C 29.81in /  1009.4hPa North 9.2mph /  14.8km/h   92% 0.00in /  0mm 0.0 W/m2
04:39 55.9 °F /  13.3 °C 53.6 °F /  12 °C 29.81in /  1009.4hPa North 9.2mph /  14.8km/h   92% 0.00in /  0mm 0.0 W/m2
04:44 55.9 °F /  13.3 °C 53.6 °F /  12 °C 29.81in /  1009.4hPa North 9.2mph /  14.8km/h   92% 0.00in /  0mm 0.0 W/m2
04:49 55.9 °F /  13.3 °C 53.6 °F /  12 °C 29.81in /  1009.4hPa North 9.2mph /  14.8km/h   92% 0.00in /  0mm 0.0 W/m2
04:54 55.9 °F /  13.3 °C 53.6 °F /  12 °C 29.81in /  1009.4hPa North 9.2mph /  14.8km/h   92% 0.00in /  0mm 0.0 W/m2
04:59 55.9 °F /  13.3 °C 53.6 °F /  12 °C 29.81in /  1009.4hPa North 9.2mph /  14.8km/h   92% 0.00in /  0mm 0.0 W/m2
05:04 55.9 °F /  13.3 °C 53.6 °F /  12 °C 29.81in /  1009.4hPa North 9.2mph /  14.8km/h   92% 0.00in /  0mm 0.0 W/m2
05:09 55.9 °F /  13.3 °C 53.6 °F /  12 °C 29.82in /  1009.7hPa North 9.2mph /  14.8km/h   92% 0.00in /  0mm 0.0 W/m2
05:14 55.9 °F /  13.3 °C 53.6 °F /  12 °C 29.81in /  1009.4hPa North 9.2mph /  14.8km/h   92% 0.00in /  0mm 0.0 W/m2
05:19 55.9 °F /  13.3 °C 53.6 °F /  12 °C 29.81in /  1009.4hPa North 9.2mph /  14.8km/h   92% 0.00in /  0mm 0.0 W/m2
05:24 55.9 °F /  13.3 °C 53.6 °F /  12 °C 29.81in /  1009.4hPa North 9.2mph /  14.8km/h   92% 0.00in /  0mm 0.0 W/m2
05:30 55.9 °F /  13.3 °C 53.6 °F /  12 °C 29.82in /  1009.7hPa North 9.2mph /  14.8km/h   92% 0.00in /  0mm 0.0 W/m2
05:35 55.9 °F /  13.3 °C 53.6 °F /  12 °C 29.82in /  1009.7hPa North 9.2mph /  14.8km/h   92% 0.00in /  0mm 0.0 W/m2
05:40 55.9 °F /  13.3 °C 53.6 °F /  12 °C 29.82in /  1009.7hPa North 9.2mph /  14.8km/h   92% 0.00in /  0mm 0.0 W/m2
05:45 55.9 °F /  13.3 °C 53.6 °F /  12 °C 29.82in /  1009.7hPa North 9.2mph /  14.8km/h   92% 0.00in /  0mm 0.0 W/m2
05:50 55.9 °F /  13.3 °C 53.6 °F /  12 °C 29.82in /  1009.7hPa North 9.2mph /  14.8km/h   92% 0.00in /  0mm 0.0 W/m2
05:55 55.9 °F /  13.3 °C 53.6 °F /  12 °C 29.82in /  1009.7hPa North 9.2mph /  14.8km/h   92% 0.00in /  0mm 0.0 W/m2
06:00 55.9 °F /  13.3 °C 53.6 °F /  12 °C 29.82in /  1009.7hPa North 9.2mph /  14.8km/h   92% 0.00in /  0mm 0.0 W/m2
06:05 55.9 °F /  13.3 °C 53.6 °F /  12 °C 29.82in /  1009.7hPa North 9.2mph /  14.8km/h   92% 0.00in /  0mm 0.0 W/m2
06:10 55.9 °F /  13.3 °C 53.6 °F /  12 °C 29.82in /  1009.7hPa North 9.2mph /  14.8km/h   92% 0.00in /  0mm 0.0 W/m2
06:15 55.9 °F /  13.3 °C 53.6 °F /  12 °C 29.82in /  1009.7hPa North 9.2mph /  14.8km/h   92% 0.00in /  0mm 0.0 W/m2
06:20 55.9 °F /  13.3 °C 53.6 °F /  12 °C 29.83in /  1010hPa North 9.2mph /  14.8km/h   92% 0.00in /  0mm 0.0 W/m2
06:25 55.9 °F /  13.3 °C 53.6 °F /  12 °C 29.83in /  1010hPa North 9.2mph /  14.8km/h   92% 0.00in /  0mm 0.0 W/m2
06:30 55.9 °F /  13.3 °C 53.6 °F /  12 °C 29.83in /  1010hPa North 9.2mph /  14.8km/h   92% 0.00in /  0mm 0.0 W/m2
06:35 55.9 °F /  13.3 °C 53.6 °F /  12 °C 29.83in /  1010hPa North 9.2mph /  14.8km/h   92% 0.00in /  0mm 0.0 W/m2
06:41 55.9 °F /  13.3 °C 53.6 °F /  12 °C 29.83in /  1010hPa North 9.2mph /  14.8km/h   92% 0.00in /  0mm 0.0 W/m2
06:46 55.9 °F /  13.3 °C 53.6 °F /  12 °C 29.83in /  1010hPa North 9.2mph /  14.8km/h   92% 0.00in /  0mm 0.0 W/m2
06:51 55.9 °F /  13.3 °C 53.6 °F /  12 °C 29.83in /  1010hPa North 9.2mph /  14.8km/h   92% 0.00in /  0mm 0.0 W/m2
06:56 55.9 °F /  13.3 °C 53.6 °F /  12 °C 29.83in /  1010hPa North 9.2mph /  14.8km/h   92% 0.00in /  0mm 0.0 W/m2
07:01 55.9 °F /  13.3 °C 53.6 °F /  12 °C 29.83in /  1010hPa North 9.2mph /  14.8km/h   92% 0.00in /  0mm 0.0 W/m2
07:06 55.9 °F /  13.3 °C 53.6 °F /  12 °C 29.83in /  1010hPa North 9.2mph /  14.8km/h   92% 0.00in /  0mm 0.0 W/m2
07:11 55.9 °F /  13.3 °C 53.6 °F /  12 °C 29.83in /  1010hPa North 9.2mph /  14.8km/h   92% 0.00in /  0mm 0.0 W/m2 CLR
07:16 55.9 °F /  13.3 °C 53.6 °F /  12 °C 29.83in /  1010hPa North 9.2mph /  14.8km/h   92% 0.00in /  0mm 0.0 W/m2 CLR
07:21 55.9 °F /  13.3 °C 53.6 °F /  12 °C 29.83in /  1010hPa North 9.2mph /  14.8km/h   92% 0.00in /  0mm 0.0 W/m2 CLR
07:26 55.9 °F /  13.3 °C 53.6 °F /  12 °C 29.84in /  1010.4hPa North 9.2mph /  14.8km/h   92% 0.00in /  0mm 0.0 W/m2 CLR
07:32 55.9 °F /  13.3 °C 53.6 °F /  12 °C 29.84in /  1010.4hPa North 9.2mph /  14.8km/h   92% 0.00in /  0mm 0.0 W/m2 CLR
07:37 55.9 °F /  13.3 °C 53.6 °F /  12 °C 29.84in /  1010.4hPa North 9.2mph /  14.8km/h   92% 0.00in /  0mm 0.0 W/m2 CLR
07:42 55.9 °F /  13.3 °C 53.6 °F /  12 °C 29.84in /  1010.4hPa North 9.2mph /  14.8km/h   92% 0.00in /  0mm 0.0 W/m2 CLR
07:47 55.9 °F /  13.3 °C 53.6 °F /  12 °C 29.84in /  1010.4hPa North 9.2mph /  14.8km/h   92% 0.00in /  0mm 0.0 W/m2 CLR
07:52 55.9 °F /  13.3 °C 53.6 °F /  12 °C 29.85in /  1010.7hPa North 9.2mph /  14.8km/h   92% 0.00in /  0mm 0.0 W/m2 CLR
07:57 55.9 °F /  13.3 °C 53.6 °F /  12 °C 29.84in /  1010.4hPa North 9.2mph /  14.8km/h   92% 0.00in /  0mm 0.0 W/m2 CLR
08:02 55.9 °F /  13.3 °C 53.6 °F /  12 °C 29.85in /  1010.7hPa North 9.2mph /  14.8km/h   92% 0.00in /  0mm 0.0 W/m2 CLR
08:07 55.9 °F /  13.3 °C 53.6 °F /  12 °C 29.85in /  1010.7hPa North 9.2mph /  14.8km/h   92% 0.00in /  0mm 0.0 W/m2 CLR
08:12 55.9 °F /  13.3 °C 53.6 °F /  12 °C 29.85in /  1010.7hPa North 9.2mph /  14.8km/h   92% 0.00in /  0mm 0.0 W/m2 CLR
08:17 55.9 °F /  13.3 °C 53.6 °F /  12 °C 29.85in /  1010.7hPa North 9.2mph /  14.8km/h   92% 0.00in /  0mm 0.0 W/m2 CLR
08:23 55.9 °F /  13.3 °C 53.6 °F /  12 °C 29.85in /  1010.7hPa North 9.2mph /  14.8km/h   92% 0.00in /  0mm 0.0 W/m2 CLR
08:28 55.9 °F /  13.3 °C 53.6 °F /  12 °C 29.86in /  1011.1hPa North 9.2mph /  14.8km/h   92% 0.00in /  0mm 0.0 W/m2 CLR
08:33 55.9 °F /  13.3 °C 53.6 °F /  12 °C 29.86in /  1011.1hPa North 9.2mph /  14.8km/h   92% 0.00in /  0mm 0.0 W/m2 CLR
08:38 55.9 °F /  13.3 °C 53.6 °F /  12 °C 29.86in /  1011.1hPa North 9.2mph /  14.8km/h   92% 0.00in /  0mm 0.0 W/m2 CLR
08:43 55.9 °F /  13.3 °C 53.6 °F /  12 °C 29.86in /  1011.1hPa North 9.2mph /  14.8km/h   92% 0.00in /  0mm 0.0 W/m2 CLR
08:48 55.9 °F /  13.3 °C 53.6 °F /  12 °C 29.86in /  1011.1hPa North 9.2mph /  14.8km/h   92% 0.00in /  0mm 0.0 W/m2 CLR
08:53 55.9 °F /  13.3 °C 53.6 °F /  12 °C 29.87in /  1011.4hPa North 9.2mph /  14.8km/h   92% 0.00in /  0mm 0.0 W/m2 CLR
08:58 55.9 °F /  13.3 °C 53.6 °F /  12 °C 29.87in /  1011.4hPa North 9.2mph /  14.8km/h   92% 0.00in /  0mm 0.0 W/m2 CLR
09:03 55.9 °F /  13.3 °C 53.6 °F /  12 °C 29.86in /  1011.1hPa North 9.2mph /  14.8km/h   92% 0.00in /  0mm 0.0 W/m2 OVC
09:08 55.9 °F /  13.3 °C 53.6 °F /  12 °C 29.87in /  1011.4hPa North 9.2mph /  14.8km/h   92% 0.00in /  0mm 0.0 W/m2 OVC
09:13 61.4 °F /  16.3 °C 59.7 °F /  15.4 °C 29.87in /  1011.4hPa NNW 9.2mph /  14.8km/h   94% 0.00in /  0mm 0.0 W/m2 OVC
09:19 61.6 °F /  16.4 °C 59.9 °F /  15.5 °C 29.87in /  1011.4hPa NNW 9.2mph /  14.8km/h   94% 0.00in /  0mm 0.0 W/m2 OVC
09:24 61.7 °F /  16.5 °C 59.7 °F /  15.4 °C 29.87in /  1011.4hPa NW 9.2mph /  14.8km/h 9.2mph /  14.8km/h 93% 0.00in /  0mm 0.0 W/m2 OVC
09:29 61.9 °F /  16.6 °C 59.9 °F /  15.5 °C 29.87in /  1011.4hPa North 9.2mph /  14.8km/h   93% 0.00in /  0mm 0.0 W/m2 OVC
09:34 62.1 °F /  16.7 °C 60.1 °F /  15.6 °C 29.88in /  1011.7hPa NW 9.2mph /  14.8km/h   93% 0.00in /  0mm 0.0 W/m2 OVC
09:36 62.3 °F /  16.8 °C 60.2 °F /  15.7 °C 29.88in /  1011.7hPa NW 9.2mph /  14.8km/h   93% 0.00in /  0mm 0.0 W/m2 OVC
09:41 62.5 °F /  16.9 °C 60.1 °F /  15.6 °C 29.89in /  1012.1hPa NW 9.2mph /  14.8km/h   92% 0.00in /  0mm 0.0 W/m2 OVC
09:46 62.7 °F /  17.1 °C 60.0 °F /  15.6 °C 29.89in /  1012.1hPa NNW 9.2mph /  14.8km/h   91% 0.00in /  0mm 0.0 W/m2 OVC
09:51 63.0 °F /  17.2 °C 60.0 °F /  15.6 °C 29.89in /  1012.1hPa East 9.2mph /  14.8km/h 9.2mph /  14.8km/h 90% 0.00in /  0mm 0.0 W/m2 OVC
09:56 63.2 °F /  17.3 °C 59.9 °F /  15.5 °C 29.89in /  1012.1hPa ENE 9.2mph /  14.8km/h   89% 0.00in /  0mm 0.0 W/m2 OVC
10:01 63.4 °F /  17.4 °C 60.1 °F /  15.6 °C 29.89in /  1012.1hPa WNW 9.2mph /  14.8km/h   89% 0.00in /  0mm 0.0 W/m2 OVC
10:06 63.3 °F /  17.4 °C 59.7 °F /  15.4 °C 29.89in /  1012.1hPa NNW 9.2mph /  14.8km/h   88% 0.00in /  0mm 0.0 W/m2 OVC
10:12 63.2 °F /  17.3 °C 59.6 °F /  15.3 °C 29.90in /  1012.4hPa NE 9.2mph /  14.8km/h 9.2mph /  14.8km/h 88% 0.00in /  0mm 0.0 W/m2 OVC
10:42 65.2 °F /  18.4 °C 59.9 °F /  15.5 °C 29.89in /  1012.1hPa North 9.2mph /  14.8km/h 9.2mph /  14.8km/h 83% 0.00in /  0mm 0.0 W/m2 OVC
10:47 65.3 °F /  18.5 °C 59.7 °F /  15.4 °C 29.90in /  1012.4hPa NNE 9.2mph /  14.8km/h   82% 0.00in /  0mm 0.0 W/m2 OVC
10:52 65.4 °F /  18.6 °C 59.8 °F /  15.4 °C 29.90in /  1012.4hPa NNW 9.2mph /  14.8km/h   82% 0.00in /  0mm 0.0 W/m2 OVC
10:57 65.3 °F /  18.5 °C 59.3 °F /  15.2 °C 29.89in /  1012.1hPa North 9.2mph /  14.8km/h 9.2mph /  14.8km/h 81% 0.00in /  0mm 0.0 W/m2 OVC
11:02 65.2 °F /  18.4 °C 58.5 °F /  14.7 °C 29.90in /  1012.4hPa North 9.2mph /  14.8km/h   79% 0.00in /  0mm 0.0 W/m2 OVC
11:08 64.9 °F /  18.3 °C 58.9 °F /  14.9 °C 29.90in /  1012.4hPa NW 9.2mph /  14.8km/h 9.2mph /  14.8km/h 81% 0.00in /  0mm 0.0 W/m2 OVC
11:13 64.9 °F /  18.3 °C 58.9 °F /  14.9 °C 29.90in /  1012.4hPa North 9.2mph /  14.8km/h 9.2mph /  14.8km/h 81% 0.00in /  0mm 0.0 W/m2 OVC
11:18 65.1 °F /  18.4 °C 58.8 °F /  14.9 °C 29.89in /  1012.1hPa NW 9.2mph /  14.8km/h 9.2mph /  14.8km/h 80% 0.00in /  0mm 0.0 W/m2 OVC
11:23 65.9 °F /  18.8 °C 59.6 °F /  15.3 °C 29.89in /  1012.1hPa West 9.2mph /  14.8km/h 9.2mph /  14.8km/h 80% 0.00in /  0mm 0.0 W/m2 OVC
11:28 66.9 °F /  19.4 °C 58.7 °F /  14.8 °C 29.89in /  1012.1hPa North 9.2mph /  14.8km/h 9.2mph /  14.8km/h 75% 0.00in /  0mm 0.0 W/m2 OVC
11:33 67.5 °F /  19.7 °C 59.3 °F /  15.2 °C 29.89in /  1012.1hPa NW 9.2mph /  14.8km/h   75% 0.00in /  0mm 0.0 W/m2 OVC
11:43 67.8 °F /  19.9 °C 59.6 °F /  15.3 °C 29.88in /  1011.7hPa ENE 9.2mph /  14.8km/h 9.2mph /  14.8km/h 75% 0.00in /  0mm 0.0 W/m2 OVC
11:48 68.6 °F /  20.3 °C 59.6 °F /  15.3 °C 29.88in /  1011.7hPa ENE 9.2mph /  14.8km/h   73% 0.00in /  0mm 0.0 W/m2 OVC
11:53 69.5 °F /  20.8 °C 58.9 °F /  14.9 °C 29.87in /  1011.4hPa NW 9.2mph /  14.8km/h 9.2mph /  14.8km/h 69% 0.00in /  0mm 0.0 W/m2 OVC
11:59 70.1 °F /  21.2 °C 58.6 °F /  14.8 °C 29.88in /  1011.7hPa NNW 9.2mph /  14.8km/h 9.2mph /  14.8km/h 67% 0.00in /  0mm 0.0 W/m2 OVC
12:04 70.1 °F /  21.2 °C 58.6 °F /  14.8 °C 29.88in /  1011.7hPa North 9.2mph /  14.8km/h 9.2mph /  14.8km/h 67% 0.00in /  0mm 0.0 W/m2 OVC
12:09 69.8 °F /  21 °C 58.3 °F /  14.6 °C 29.87in /  1011.4hPa NW 9.2mph /  14.8km/h 9.2mph /  14.8km/h 67% 0.00in /  0mm 0.0 W/m2 OVC
12:10 69.7 °F /  20.9 °C 58.3 °F /  14.6 °C 29.87in /  1011.4hPa NNW 9.2mph /  14.8km/h 9.2mph /  14.8km/h 67% 0.00in /  0mm 0.0 W/m2 OVC
12:15 69.3 °F /  20.7 °C 57.9 °F /  14.4 °C 29.87in /  1011.4hPa North 9.2mph /  14.8km/h   67% 0.00in /  0mm 0.0 W/m2 OVC
12:20 69.0 °F /  20.6 °C 58.0 °F /  14.4 °C 29.86in /  1011.1hPa North 9.2mph /  14.8km/h   68% 0.00in /  0mm 0.0 W/m2 OVC
12:26 69.1 °F /  20.6 °C 58.1 °F /  14.5 °C 29.86in /  1011.1hPa NNE 9.2mph /  14.8km/h   68% 0.00in /  0mm 0.0 W/m2 OVC
12:31 69.4 °F /  20.8 °C 58.4 °F /  14.7 °C 29.86in /  1011.1hPa NNE 9.2mph /  14.8km/h 9.2mph /  14.8km/h 68% 0.00in /  0mm 0.0 W/m2 OVC
12:36 69.7 °F /  20.9 °C 57.0 °F /  13.9 °C 29.86in /  1011.1hPa North 9.2mph /  14.8km/h 9.2mph /  14.8km/h 64% 0.00in /  0mm 0.0 W/m2 OVC
12:41 70.3 °F /  21.3 °C 57.1 °F /  13.9 °C 29.85in /  1010.7hPa NNE 9.2mph /  14.8km/h 9.2mph /  14.8km/h 63% 0.00in /  0mm 0.0 W/m2 OVC
12:46 70.2 °F /  21.2 °C 56.1 °F /  13.4 °C 29.85in /  1010.7hPa NW 9.2mph /  14.8km/h 9.2mph /  14.8km/h 61% 0.00in /  0mm 0.0 W/m2 OVC
12:51 69.6 °F /  20.9 °C 55.6 °F /  13.1 °C 29.85in /  1010.7hPa WNW 9.2mph /  14.8km/h 9.2mph /  14.8km/h 61% 0.00in /  0mm 0.0 W/m2 OVC
12:56 69.7 °F /  20.9 °C 56.5 °F /  13.6 °C 29.85in /  1010.7hPa NW 9.2mph /  14.8km/h 9.2mph /  14.8km/h 63% 0.00in /  0mm 0.0 W/m2 OVC
13:01 69.9 °F /  21.1 °C 55.4 °F /  13 °C 29.85in /  1010.7hPa NNW 9.2mph /  14.8km/h 9.2mph /  14.8km/h 60% 0.00in /  0mm 0.0 W/m2 OVC
13:07 69.7 °F /  20.9 °C 55.2 °F /  12.9 °C 29.85in /  1010.7hPa NW 9.2mph /  14.8km/h   60% 0.00in /  0mm 0.0 W/m2 OVC
13:12 69.3 °F /  20.7 °C 55.7 °F /  13.2 °C 29.84in /  1010.4hPa NNW 9.2mph /  14.8km/h 9.2mph /  14.8km/h 62% 0.00in /  0mm 0.0 W/m2 OVC
13:17 68.9 °F /  20.5 °C 56.6 °F /  13.7 °C 29.85in /  1010.7hPa WNW 9.2mph /  14.8km/h   65% 0.00in /  0mm 0.0 W/m2 OVC
13:22 69.5 °F /  20.8 °C 56.3 °F /  13.5 °C 29.84in /  1010.4hPa NNE 9.2mph /  14.8km/h   63% 0.00in /  0mm 0.0 W/m2 OVC
13:27 70.8 °F /  21.6 °C 56.2 °F /  13.4 °C 29.83in /  1010hPa NNE 9.2mph /  14.8km/h 9.2mph /  14.8km/h 60% 0.00in /  0mm 0.0 W/m2 OVC
13:32 71.7 °F /  22.1 °C 56.1 °F /  13.4 °C 29.83in /  1010hPa NE 9.2mph /  14.8km/h 9.2mph /  14.8km/h 58% 0.00in /  0mm 0.0 W/m2 OVC
13:37 71.3 °F /  21.8 °C 55.8 °F /  13.2 °C 29.83in /  1010hPa North 9.2mph /  14.8km/h 9.2mph /  14.8km/h 58% 0.00in /  0mm 0.0 W/m2 OVC
13:42 70.9 °F /  21.6 °C 55.9 °F /  13.3 °C 29.83in /  1010hPa NE 9.2mph /  14.8km/h 9.2mph /  14.8km/h 59% 0.00in /  0mm 0.0 W/m2 OVC
13:47 71.1 °F /  21.7 °C 55.6 °F /  13.1 °C 29.83in /  1010hPa NNW 9.2mph /  14.8km/h 9.2mph /  14.8km/h 58% 0.00in /  0mm 0.0 W/m2 OVC
13:52 71.3 °F /  21.8 °C 55.3 °F /  12.9 °C 29.83in /  1010hPa NE 9.2mph /  14.8km/h 9.2mph /  14.8km/h 57% 0.00in /  0mm 0.0 W/m2 OVC
13:57 71.0 °F /  21.7 °C 55.5 °F /  13.1 °C 29.83in /  1010hPa NW 9.2mph /  14.8km/h 9.2mph /  14.8km/h 58% 0.00in /  0mm 0.0 W/m2 OVC
14:03 70.6 °F /  21.4 °C 55.1 °F /  12.8 °C 29.82in /  1009.7hPa NE 9.2mph /  14.8km/h 9.2mph /  14.8km/h 58% 0.00in /  0mm 0.0 W/m2 OVC
14:08 70.9 °F /  21.6 °C 56.3 °F /  13.5 °C 29.82in /  1009.7hPa NNW 9.2mph /  14.8km/h 9.2mph /  14.8km/h 60% 0.00in /  0mm 0.0 W/m2 OVC
14:13 71.2 °F /  21.8 °C 56.1 °F /  13.4 °C 29.82in /  1009.7hPa NW 9.2mph /  14.8km/h 9.2mph /  14.8km/h 59% 0.00in /  0mm 0.0 W/m2 OVC
14:18 71.2 °F /  21.8 °C 55.7 °F /  13.2 °C 29.82in /  1009.7hPa WNW 9.2mph /  14.8km/h 9.2mph /  14.8km/h 58% 0.00in /  0mm 0.0 W/m2 OVC
14:23 71.4 °F /  21.9 °C 55.9 °F /  13.3 °C 29.82in /  1009.7hPa NE 9.2mph /  14.8km/h 9.2mph /  14.8km/h 58% 0.00in /  0mm 0.0 W/m2 OVC
14:28 71.4 °F /  21.9 °C 54.9 °F /  12.7 °C 29.82in /  1009.7hPa SSW 9.2mph /  14.8km/h 9.2mph /  14.8km/h 56% 0.00in /  0mm 0.0 W/m2 OVC
14:33 71.1 °F /  21.7 °C 55.6 °F /  13.1 °C 29.82in /  1009.7hPa North 9.2mph /  14.8km/h   58% 0.00in /  0mm 0.0 W/m2 OVC
14:38 71.1 °F /  21.7 °C 54.6 °F /  12.6 °C 29.82in /  1009.7hPa WNW 9.2mph /  14.8km/h 9.2mph /  14.8km/h 56% 0.00in /  0mm 0.0 W/m2 OVC
14:43 71.3 °F /  21.8 °C 54.8 °F /  12.7 °C 29.82in /  1009.7hPa North 9.2mph /  14.8km/h 9.2mph /  14.8km/h 56% 0.00in /  0mm 0.0 W/m2 OVC
14:49 71.2 °F /  21.8 °C 54.7 °F /  12.6 °C 29.82in /  1009.7hPa West 9.2mph /  14.8km/h 9.2mph /  14.8km/h 56% 0.00in /  0mm 0.0 W/m2 OVC
14:54 70.9 °F /  21.6 °C 54.9 °F /  12.7 °C 29.82in /  1009.7hPa West 9.2mph /  14.8km/h 9.2mph /  14.8km/h 57% 0.00in /  0mm 0.0 W/m2 OVC
14:59 70.8 °F /  21.6 °C 54.8 °F /  12.7 °C 29.82in /  1009.7hPa WNW 9.2mph /  14.8km/h 9.2mph /  14.8km/h 57% 0.00in /  0mm 0.0 W/m2 OVC
15:04 70.6 °F /  21.4 °C 55.6 °F /  13.1 °C 29.82in /  1009.7hPa NNE 9.2mph /  14.8km/h 9.2mph /  14.8km/h 59% 0.00in /  0mm 0.0 W/m2 OVC
15:09 70.9 °F /  21.6 °C 54.4 °F /  12.4 °C 29.82in /  1009.7hPa North 9.2mph /  14.8km/h 9.2mph /  14.8km/h 56% 0.00in /  0mm 0.0 W/m2 OVC
15:14 71.3 °F /  21.8 °C 54.8 °F /  12.7 °C 29.82in /  1009.7hPa NW 9.2mph /  14.8km/h 9.2mph /  14.8km/h 56% 0.00in /  0mm 0.0 W/m2 OVC
15:19 71.3 °F /  21.8 °C 54.8 °F /  12.7 °C 29.82in /  1009.7hPa West 9.2mph /  14.8km/h 9.2mph /  14.8km/h 56% 0.00in /  0mm 0.0 W/m2 OVC
15:24 71.0 °F /  21.7 °C 54.5 °F /  12.5 °C 29.82in /  1009.7hPa NW 9.2mph /  14.8km/h   56% 0.00in /  0mm 0.0 W/m2 OVC
15:29 70.7 °F /  21.5 °C 55.7 °F /  13.2 °C 29.83in /  1010hPa NW 9.2mph /  14.8km/h 9.2mph /  14.8km/h 59% 0.00in /  0mm 0.0 W/m2 OVC
15:34 71.1 °F /  21.7 °C 55.6 °F /  13.1 °C 29.83in /  1010hPa NW 9.2mph /  14.8km/h   58% 0.00in /  0mm 0.0 W/m2 OVC
15:39 71.4 °F /  21.9 °C 55.4 °F /  13 °C 29.82in /  1009.7hPa NW 9.2mph /  14.8km/h 9.2mph /  14.8km/h 57% 0.00in /  0mm 0.0 W/m2 OVC
15:44 71.5 °F /  21.9 °C 55.5 °F /  13.1 °C 29.82in /  1009.7hPa NE 9.2mph /  14.8km/h 9.2mph /  14.8km/h 57% 0.00in /  0mm 0.0 W/m2 OVC
15:50 71.9 °F /  22.2 °C 55.8 °F /  13.2 °C 29.82in /  1009.7hPa NW 9.2mph /  14.8km/h   57% 0.00in /  0mm 0.0 W/m2 OVC
15:55 71.9 °F /  22.2 °C 54.9 °F /  12.7 °C 29.82in /  1009.7hPa WNW 9.2mph /  14.8km/h 9.2mph /  14.8km/h 55% 0.00in /  0mm 0.0 W/m2 OVC
16:00 71.6 °F /  22 °C 54.1 °F /  12.3 °C 29.82in /  1009.7hPa NE 9.2mph /  14.8km/h 9.2mph /  14.8km/h 54% 0.00in /  0mm 0.0 W/m2
16:05 71.4 °F /  21.9 °C 54.4 °F /  12.4 °C 29.83in /  1010hPa NW 9.2mph /  14.8km/h 9.2mph /  14.8km/h 55% 0.00in /  0mm 0.0 W/m2 CLR
16:10 71.2 °F /  21.8 °C 54.7 °F /  12.6 °C 29.83in /  1010hPa NW 9.2mph /  14.8km/h 9.2mph /  14.8km/h 56% 0.00in /  0mm 0.0 W/m2 CLR
16:15 71.1 °F /  21.7 °C 55.1 °F /  12.8 °C 29.82in /  1009.7hPa NNE 9.2mph /  14.8km/h 9.2mph /  14.8km/h 57% 0.00in /  0mm 0.0 W/m2 CLR
16:20 70.9 °F /  21.6 °C 54.4 °F /  12.4 °C 29.82in /  1009.7hPa North 9.2mph /  14.8km/h 9.2mph /  14.8km/h 56% 0.00in /  0mm 0.0 W/m2 CLR
16:25 70.7 °F /  21.5 °C 54.7 °F /  12.6 °C 29.82in /  1009.7hPa NW 9.2mph /  14.8km/h   57% 0.00in /  0mm 0.0 W/m2 CLR
16:30 70.6 °F /  21.4 °C 54.6 °F /  12.6 °C 29.82in /  1009.7hPa NNW 9.2mph /  14.8km/h   57% 0.00in /  0mm 0.0 W/m2 CLR
16:35 70.1 °F /  21.2 °C 54.2 °F /  12.3 °C 29.82in /  1009.7hPa NNW 9.2mph /  14.8km/h   57% 0.00in /  0mm 0.0 W/m2 CLR
16:41 69.7 °F /  20.9 °C 54.3 °F /  12.4 °C 29.83in /  1010hPa West 9.2mph /  14.8km/h   58% 0.00in /  0mm 0.0 W/m2 CLR
16:46 69.5 °F /  20.8 °C 54.1 °F /  12.3 °C 29.83in /  1010hPa West 9.2mph /  14.8km/h   58% 0.00in /  0mm 0.0 W/m2 CLR
16:51 69.5 °F /  20.8 °C 54.5 °F /  12.5 °C 29.83in /  1010hPa WNW 9.2mph /  14.8km/h   59% 0.00in /  0mm 0.0 W/m2 CLR
16:56 69.3 °F /  20.7 °C 54.4 °F /  12.4 °C 29.82in /  1009.7hPa WNW 9.2mph /  14.8km/h 9.2mph /  14.8km/h 59% 0.00in /  0mm 0.0 W/m2 CLR
17:01 69.0 °F /  20.6 °C 54.5 °F /  12.5 °C 29.82in /  1009.7hPa WNW 9.2mph /  14.8km/h   60% 0.00in /  0mm 0.0 W/m2 CLR
17:06 68.6 °F /  20.3 °C 54.6 °F /  12.6 °C 29.82in /  1009.7hPa WNW 9.2mph /  14.8km/h   61% 0.00in /  0mm 0.0 W/m2 CLR
17:11 68.4 °F /  20.2 °C 54.4 °F /  12.4 °C 29.82in /  1009.7hPa North 9.2mph /  14.8km/h   61% 0.00in /  0mm 0.0 W/m2 CLR
17:16 68.2 °F /  20.1 °C 54.7 °F /  12.6 °C 29.82in /  1009.7hPa North 9.2mph /  14.8km/h   62% 0.00in /  0mm 0.0 W/m2 CLR
17:21 67.9 °F /  19.9 °C 55.3 °F /  12.9 °C 29.82in /  1009.7hPa North 9.2mph /  14.8km/h   64% 0.00in /  0mm 0.0 W/m2 CLR
17:26 67.7 °F /  19.8 °C 54.6 °F /  12.6 °C 29.82in /  1009.7hPa WNW 9.2mph /  14.8km/h 9.2mph /  14.8km/h 63% 0.00in /  0mm 0.0 W/m2 CLR
17:32 67.4 °F /  19.7 °C 54.8 °F /  12.7 °C 29.82in /  1009.7hPa NNW 9.2mph /  14.8km/h   64% 0.00in /  0mm 0.0 W/m2 CLR
17:37 67.0 °F /  19.4 °C 54.8 °F /  12.7 °C 29.82in /  1009.7hPa NNW 9.2mph /  14.8km/h   65% 0.00in /  0mm 0.0 W/m2 CLR
17:42 66.6 °F /  19.2 °C 55.3 °F /  12.9 °C 29.83in /  1010hPa NNW 9.2mph /  14.8km/h   67% 0.00in /  0mm 0.0 W/m2 CLR
17:47 66.2 °F /  19 °C 54.9 °F /  12.7 °C 29.83in /  1010hPa NNW 9.2mph /  14.8km/h   67% 0.00in /  0mm 0.0 W/m2 CLR
17:52 65.9 °F /  18.8 °C 55.0 °F /  12.8 °C 29.83in /  1010hPa NW 9.2mph /  14.8km/h   68% 0.00in /  0mm 0.0 W/m2 CLR
17:57 65.6 °F /  18.7 °C 54.8 °F /  12.7 °C 29.83in /  1010hPa NW 9.2mph /  14.8km/h   68% 0.00in /  0mm 0.0 W/m2 CLR
18:02 65.4 °F /  18.6 °C 55.0 °F /  12.8 °C 29.83in /  1010hPa NNW 9.2mph /  14.8km/h   69% 0.00in /  0mm 0.0 W/m2
18:07 65.0 °F /  18.3 °C 54.6 °F /  12.6 °C 29.82in /  1009.7hPa NNW 9.2mph /  14.8km/h   69% 0.00in /  0mm 0.0 W/m2
18:12 64.9 °F /  18.3 °C 54.9 °F /  12.7 °C 29.83in /  1010hPa NNW 9.2mph /  14.8km/h   70% 0.00in /  0mm 0.0 W/m2
18:17 64.5 °F /  18.1 °C 54.5 °F /  12.5 °C 29.82in /  1009.7hPa NNW 9.2mph /  14.8km/h   70% 0.00in /  0mm 0.0 W/m2
18:23 64.1 °F /  17.8 °C 54.5 °F /  12.5 °C 29.83in /  1010hPa NNW 9.2mph /  14.8km/h   71% 0.00in /  0mm 0.0 W/m2
18:28 63.8 °F /  17.7 °C 54.6 °F /  12.6 °C 29.83in /  1010hPa NNW 9.2mph /  14.8km/h   72% 0.00in /  0mm 0.0 W/m2
18:33 63.5 °F /  17.5 °C 54.3 °F /  12.4 °C 29.83in /  1010hPa NNW 9.2mph /  14.8km/h   72% 0.00in /  0mm 0.0 W/m2
18:38 63.3 °F /  17.4 °C 54.5 °F /  12.5 °C 29.83in /  1010hPa NNW 9.2mph /  14.8km/h   73% 0.00in /  0mm 0.0 W/m2
18:43 63.1 °F /  17.3 °C 54.7 °F /  12.6 °C 29.83in /  1010hPa NNW 9.2mph /  14.8km/h   74% 0.00in /  0mm 0.0 W/m2
18:48 62.8 °F /  17.1 °C 54.4 °F /  12.4 °C 29.84in /  1010.4hPa NNW 9.2mph /  14.8km/h   74% 0.00in /  0mm 0.0 W/m2
18:53 62.6 °F /  17 °C 54.6 °F /  12.6 °C 29.84in /  1010.4hPa NNW 9.2mph /  14.8km/h   75% 0.00in /  0mm 0.0 W/m2
18:58 62.4 °F /  16.9 °C 54.7 °F /  12.6 °C 29.84in /  1010.4hPa NNW 9.2mph /  14.8km/h   76% 0.00in /  0mm 0.0 W/m2
19:03 62.5 °F /  16.9 °C 54.8 °F /  12.7 °C 29.84in /  1010.4hPa NNW 9.2mph /  14.8km/h   76% 0.00in /  0mm 0.0 W/m2
19:08 62.7 °F /  17.1 °C 55.0 °F /  12.8 °C 29.84in /  1010.4hPa NNW 9.2mph /  14.8km/h   76% 0.00in /  0mm 0.0 W/m2
19:13 62.7 °F /  17.1 °C 55.0 °F /  12.8 °C 29.84in /  1010.4hPa NNW 9.2mph /  14.8km/h   76% 0.00in /  0mm 0.0 W/m2
19:18 62.9 °F /  17.2 °C 55.6 °F /  13.1 °C 29.84in /  1010.4hPa NNW 9.2mph /  14.8km/h   77% 0.00in /  0mm 0.0 W/m2
19:23 62.8 °F /  17.1 °C 55.5 °F /  13.1 °C 29.84in /  1010.4hPa NNW 9.2mph /  14.8km/h   77% 0.00in /  0mm 0.0 W/m2
19:29 62.6 °F /  17 °C 55.3 °F /  12.9 °C 29.84in /  1010.4hPa NNW 9.2mph /  14.8km/h   77% 0.00in /  0mm 0.0 W/m2
19:34 62.4 °F /  16.9 °C 55.4 °F /  13 °C 29.85in /  1010.7hPa NNW 9.2mph /  14.8km/h   78% 0.00in /  0mm 0.0 W/m2
19:39 62.2 °F /  16.8 °C 55.6 °F /  13.1 °C 29.85in /  1010.7hPa NNW 9.2mph /  14.8km/h   79% 0.00in /  0mm 0.0 W/m2
19:44 62.0 °F /  16.7 °C 55.8 °F /  13.2 °C 29.85in /  1010.7hPa NNW 9.2mph /  14.8km/h   80% 0.00in /  0mm 0.0 W/m2
19:49 61.8 °F /  16.6 °C 55.6 °F /  13.1 °C 29.86in /  1011.1hPa NNW 9.2mph /  14.8km/h   80% 0.00in /  0mm 0.0 W/m2
19:54 61.7 °F /  16.5 °C 55.8 °F /  13.2 °C 29.86in /  1011.1hPa North 9.2mph /  14.8km/h   81% 0.00in /  0mm 0.0 W/m2
19:59 61.7 °F /  16.5 °C 55.8 °F /  13.2 °C 29.86in /  1011.1hPa North 9.2mph /  14.8km/h   81% 0.00in /  0mm 0.0 W/m2
20:04 61.5 °F /  16.4 °C 55.6 °F /  13.1 °C 29.86in /  1011.1hPa North 9.2mph /  14.8km/h   81% 0.00in /  0mm 0.0 W/m2
20:09 61.4 °F /  16.3 °C 55.9 °F /  13.3 °C 29.86in /  1011.1hPa North 9.2mph /  14.8km/h   82% 0.00in /  0mm 0.0 W/m2
20:14 61.2 °F /  16.2 °C 55.7 °F /  13.2 °C 29.86in /  1011.1hPa North 9.2mph /  14.8km/h   82% 0.00in /  0mm 0.0 W/m2
20:20 61.0 °F /  16.1 °C 55.5 °F /  13.1 °C 29.86in /  1011.1hPa North 9.2mph /  14.8km/h   82% 0.00in /  0mm 0.0 W/m2
20:25 60.9 °F /  16.1 °C 55.7 °F /  13.2 °C 29.86in /  1011.1hPa North 9.2mph /  14.8km/h   83% 0.00in /  0mm 0.0 W/m2
20:30 60.7 °F /  15.9 °C 55.8 °F /  13.2 °C 29.87in /  1011.4hPa North 9.2mph /  14.8km/h   84% 0.00in /  0mm 0.0 W/m2
20:35 60.6 °F /  15.9 °C 55.7 °F /  13.2 °C 29.87in /  1011.4hPa North 9.2mph /  14.8km/h   84% 0.00in /  0mm 0.0 W/m2
20:40 60.4 °F /  15.8 °C 55.9 °F /  13.3 °C 29.87in /  1011.4hPa North 9.2mph /  14.8km/h   85% 0.00in /  0mm 0.0 W/m2
20:45 60.4 °F /  15.8 °C 55.9 °F /  13.3 °C 29.88in /  1011.7hPa North 9.2mph /  14.8km/h   85% 0.00in /  0mm 0.0 W/m2
20:50 60.5 °F /  15.8 °C 56.0 °F /  13.3 °C 29.88in /  1011.7hPa North 9.2mph /  14.8km/h   85% 0.00in /  0mm 0.0 W/m2
20:55 60.4 °F /  15.8 °C 55.9 °F /  13.3 °C 29.88in /  1011.7hPa North 9.2mph /  14.8km/h   85% 0.00in /  0mm 0.0 W/m2
21:00 60.4 °F /  15.8 °C 55.9 °F /  13.3 °C 29.88in /  1011.7hPa North 9.2mph /  14.8km/h   85% 0.00in /  0mm 0.0 W/m2
21:05 60.5 °F /  15.8 °C 56.3 °F /  13.5 °C 29.89in /  1012.1hPa North 9.2mph /  14.8km/h   86% 0.00in /  0mm 0.0 W/m2
21:11 60.5 °F /  15.8 °C 56.3 °F /  13.5 °C 29.89in /  1012.1hPa North 9.2mph /  14.8km/h   86% 0.00in /  0mm 0.0 W/m2
21:16 60.5 °F /  15.8 °C 56.3 °F /  13.5 °C 29.89in /  1012.1hPa North 9.2mph /  14.8km/h   86% 0.00in /  0mm 0.0 W/m2
21:21 60.5 °F /  15.8 °C 56.3 °F /  13.5 °C 29.89in /  1012.1hPa North 9.2mph /  14.8km/h   86% 0.00in /  0mm 0.0 W/m2
21:26 60.5 °F /  15.8 °C 56.3 °F /  13.5 °C 29.89in /  1012.1hPa North 9.2mph /  14.8km/h   86% 0.00in /  0mm 0.0 W/m2
21:31 60.6 °F /  15.9 °C 56.7 °F /  13.7 °C 29.89in /  1012.1hPa North 9.2mph /  14.8km/h   87% 0.00in /  0mm 0.0 W/m2
21:36 60.4 °F /  15.8 °C 56.2 °F /  13.4 °C 29.89in /  1012.1hPa North 9.2mph /  14.8km/h   86% 0.00in /  0mm 0.0 W/m2
21:41 60.3 °F /  15.7 °C 56.4 °F /  13.6 °C 29.89in /  1012.1hPa North 9.2mph /  14.8km/h   87% 0.00in /  0mm 0.0 W/m2
21:46 60.3 °F /  15.7 °C 56.4 °F /  13.6 °C 29.89in /  1012.1hPa North 9.2mph /  14.8km/h   87% 0.00in /  0mm 0.0 W/m2
21:51 60.1 °F /  15.6 °C 56.2 °F /  13.4 °C 29.89in /  1012.1hPa North 9.2mph /  14.8km/h   87% 0.00in /  0mm 0.0 W/m2
21:56 60.0 °F /  15.6 °C 56.4 °F /  13.6 °C 29.89in /  1012.1hPa North 9.2mph /  14.8km/h   88% 0.00in /  0mm 0.0 W/m2
22:01 59.9 °F /  15.5 °C 56.3 °F /  13.5 °C 29.89in /  1012.1hPa North 9.2mph /  14.8km/h   88% 0.00in /  0mm 0.0 W/m2
22:07 59.7 °F /  15.4 °C 56.1 °F /  13.4 °C 29.88in /  1011.7hPa North 9.2mph /  14.8km/h   88% 0.00in /  0mm 0.0 W/m2
22:12 59.5 °F /  15.3 °C 55.9 °F /  13.3 °C 29.88in /  1011.7hPa North 9.2mph /  14.8km/h   88% 0.00in /  0mm 0.0 W/m2
22:17 59.2 °F /  15.1 °C 55.6 °F /  13.1 °C 29.88in /  1011.7hPa North 9.2mph /  14.8km/h   88% 0.00in /  0mm 0.0 W/m2
22:22 59.0 °F /  15 °C 55.8 °F /  13.2 °C 29.88in /  1011.7hPa North 9.2mph /  14.8km/h   89% 0.00in /  0mm 0.0 W/m2
22:27 58.9 °F /  14.9 °C 55.7 °F /  13.2 °C 29.88in /  1011.7hPa North 9.2mph /  14.8km/h   89% 0.00in /  0mm 0.0 W/m2
22:32 58.7 °F /  14.8 °C 55.5 °F /  13.1 °C 29.88in /  1011.7hPa North 9.2mph /  14.8km/h   89% 0.00in /  0mm 0.0 W/m2
22:37 58.6 °F /  14.8 °C 55.4 °F /  13 °C 29.88in /  1011.7hPa North 9.2mph /  14.8km/h   89% 0.00in /  0mm 0.0 W/m2
22:42 58.3 °F /  14.6 °C 55.1 °F /  12.8 °C 29.88in /  1011.7hPa North 9.2mph /  14.8km/h   89% 0.00in /  0mm 0.0 W/m2
22:47 58.1 °F /  14.5 °C 54.9 °F /  12.7 °C 29.88in /  1011.7hPa North 9.2mph /  14.8km/h   89% 0.00in /  0mm 0.0 W/m2
22:52 58.0 °F /  14.4 °C 55.1 °F /  12.8 °C 29.88in /  1011.7hPa North 9.2mph /  14.8km/h   90% 0.00in /  0mm 0.0 W/m2
22:57 57.9 °F /  14.4 °C 55.0 °F /  12.8 °C 29.88in /  1011.7hPa North 9.2mph /  14.8km/h   90% 0.00in /  0mm 0.0 W/m2
23:02 57.6 °F /  14.2 °C 54.7 °F /  12.6 °C 29.88in /  1011.7hPa North 9.2mph /  14.8km/h   90% 0.00in /  0mm 0.0 W/m2
23:08 57.3 °F /  14.1 °C 54.4 °F /  12.4 °C 29.88in /  1011.7hPa North 9.2mph /  14.8km/h   90% 0.00in /  0mm 0.0 W/m2
23:13 57.1 °F /  13.9 °C 54.2 °F /  12.3 °C 29.88in /  1011.7hPa North 9.2mph /  14.8km/h   90% 0.00in /  0mm 0.0 W/m2
23:18 57.0 °F /  13.9 °C 54.4 °F /  12.4 °C 29.88in /  1011.7hPa North 9.2mph /  14.8km/h   91% 0.00in /  0mm 0.0 W/m2
23:23 57.1 °F /  13.9 °C 54.5 °F /  12.5 °C 29.88in /  1011.7hPa North 9.2mph /  14.8km/h   91% 0.00in /  0mm 0.0 W/m2
23:28 56.8 °F /  13.8 °C 54.2 °F /  12.3 °C 29.87in /  1011.4hPa North 9.2mph /  14.8km/h   91% 0.00in /  0mm 0.0 W/m2
23:33 56.6 °F /  13.7 °C 54.0 °F /  12.2 °C 29.87in /  1011.4hPa North 9.2mph /  14.8km/h   91% 0.00in /  0mm 0.0 W/m2
23:38 56.6 °F /  13.7 °C 54.0 °F /  12.2 °C 29.88in /  1011.7hPa North 9.2mph /  14.8km/h   91% 0.00in /  0mm 0.0 W/m2
23:43 56.4 °F /  13.6 °C 53.8 °F /  12.1 °C 29.88in /  1011.7hPa North 9.2mph /  14.8km/h   91% 0.00in /  0mm 0.0 W/m2
23:48 55.4 °F /  13 °C 54.0 °F /  12.2 °C 29.88in /  1011.7hPa NNW 9.2mph /  14.8km/h   95% 0.00in /  0mm 0.0 W/m2
23:53 55.4 °F /  13 °C 54.0 °F /  12.2 °C 29.88in /  1011.7hPa NNW 9.2mph /  14.8km/h   95% 0.00in /  0mm 0.0 W/m2
23:58 55.4 °F /  13 °C 54.0 °F /  12.2 °C 29.88in /  1011.7hPa North 9.2mph /  14.8km/h   95% 0.00in /  0mm 0.0 W/m2
Piedmont Bend
Compliments of Weather Underground - 4 mb